createdAt,value
2022-08-19T00:01:11.210Z,77.06
2022-08-19T00:04:13.992Z,77.24
2022-08-19T00:07:16.262Z,77.48
2022-08-19T00:10:18.266Z,77.61
2022-08-19T00:13:19.877Z,78.63
2022-08-19T00:16:25.123Z,78.17
2022-08-19T00:19:27.885Z,78.07
2022-08-19T00:22:29.490Z,77.05
2022-08-19T00:25:31.064Z,76.63
2022-08-19T00:28:33.961Z,76.11
2022-08-19T00:31:37.749Z,76.18
2022-08-19T00:34:39.311Z,76.35
2022-08-19T00:37:44.234Z,76.46
2022-08-19T00:40:48.497Z,76.48
2022-08-19T00:44:00.615Z,77.40
2022-08-19T00:47:02.266Z,77.37
2022-08-19T00:50:04.296Z,77.03
2022-08-19T00:53:07.022Z,76.57
2022-08-19T00:56:09.461Z,77.02
2022-08-19T00:59:11.132Z,76.59
2022-08-19T01:02:13.176Z,77.05
2022-08-19T01:05:20.862Z,77.20
2022-08-19T01:08:22.739Z,77.37
2022-08-19T01:11:24.334Z,77.24
2022-08-19T01:14:25.949Z,77.15
2022-08-19T01:17:27.925Z,77.62
2022-08-19T01:20:29.525Z,77.49
2022-08-19T01:23:46.134Z,78.05
2022-08-19T01:26:47.746Z,78.51
2022-08-19T01:29:50.578Z,79.04
2022-08-19T01:32:52.711Z,79.34
2022-08-19T01:35:54.305Z,80.03
2022-08-19T01:38:56.237Z,80.68
2022-08-19T01:41:57.914Z,81.32
2022-08-19T01:44:59.518Z,81.72
2022-08-19T01:48:02.218Z,81.94
2022-08-19T01:51:04.293Z,82.15
2022-08-19T01:54:05.886Z,82.49
2022-08-19T01:57:12.292Z,82.51
2022-08-19T02:00:15.970Z,82.59
2022-08-19T02:03:17.592Z,82.27
2022-08-19T02:06:19.146Z,82.17
2022-08-19T02:09:28.669Z,82.24
2022-08-19T02:12:30.313Z,82.04
2022-08-19T02:15:33.097Z,82.05
2022-08-19T02:18:34.712Z,82.07
2022-08-19T02:21:36.325Z,82.28
2022-08-19T02:24:39.894Z,82.20
2022-08-19T02:27:41.761Z,82.21
2022-08-19T02:30:43.502Z,82.69
2022-08-19T02:33:45.582Z,83.61
2022-08-19T02:36:51.941Z,82.46
2022-08-19T02:39:54.083Z,81.75
2022-08-19T02:42:55.790Z,82.55
2022-08-19T02:45:57.401Z,82.44
2022-08-19T02:49:00.549Z,82.13
2022-08-19T02:52:02.210Z,82.36
2022-08-19T02:55:04.451Z,82.29
2022-08-19T02:58:07.366Z,82.44
2022-08-19T03:01:10.069Z,82.50
2022-08-19T03:04:12.423Z,82.56
2022-08-19T03:07:15.989Z,83.08
2022-08-19T03:10:17.675Z,83.70
2022-08-19T03:13:19.313Z,83.12
2022-08-19T03:16:24.235Z,83.35
2022-08-19T03:19:25.846Z,83.03
2022-08-19T03:22:27.881Z,83.23
2022-08-19T03:25:29.446Z,83.58
2022-08-19T03:28:31.053Z,84.17
2022-08-19T03:31:41.771Z,84.35
2022-08-19T03:34:47.419Z,84.68
2022-08-19T03:37:49.005Z,84.75
2022-08-19T03:40:50.606Z,84.57
2022-08-19T03:43:52.827Z,85.27
2022-08-19T03:46:56.279Z,85.16
2022-08-19T03:49:57.915Z,84.69
2022-08-19T03:52:59.527Z,84.83
2022-08-19T03:56:01.142Z,85.04
2022-08-19T03:59:03.062Z,85.13
2022-08-19T04:02:10.287Z,85.69
2022-08-19T04:05:12.043Z,85.51
2022-08-19T04:08:14.134Z,86.12
2022-08-19T04:11:16.801Z,86.35
2022-08-19T04:14:19.561Z,86.63
2022-08-19T04:17:21.193Z,86.89
2022-08-19T04:20:22.774Z,86.69
2022-08-19T04:23:24.581Z,86.67
2022-08-19T04:26:33.048Z,87.23
2022-08-19T04:29:34.654Z,87.02
2022-08-19T04:32:36.512Z,86.69
2022-08-19T04:35:39.005Z,86.89
2022-08-19T04:38:40.590Z,86.97
2022-08-19T04:42:00.527Z,86.82
2022-08-19T04:45:03.886Z,86.74
2022-08-19T04:48:19.737Z,86.41
2022-08-19T04:51:28.618Z,86.36
2022-08-19T04:54:37.628Z,86.08
2022-08-19T04:57:41.213Z,86.99
2022-08-19T05:00:42.940Z,87.20
2022-08-19T05:03:44.647Z,86.33
2022-08-19T05:06:48.162Z,86.94
2022-08-19T05:09:57.894Z,87.54
2022-08-19T05:13:00.581Z,88.32
2022-08-19T05:16:02.183Z,88.29
2022-08-19T05:19:22.327Z,87.50
2022-08-19T05:22:33.955Z,87.77
2022-08-19T05:25:35.599Z,87.51
2022-08-19T05:28:37.190Z,87.88
2022-08-19T05:31:39.471Z,89.23
2022-08-19T05:34:43.872Z,88.61
2022-08-19T05:37:45.442Z,88.16
2022-08-19T05:40:47.985Z,87.08
2022-08-19T05:43:51.114Z,87.86
2022-08-19T05:46:55.389Z,86.44
2022-08-19T05:49:56.966Z,86.69
2022-08-19T05:52:58.562Z,85.88
2022-08-19T05:56:04.811Z,87.69
2022-08-19T05:59:09.922Z,86.14
2022-08-19T06:02:11.587Z,87.72
2022-08-19T06:05:13.281Z,86.90
2022-08-19T06:08:14.913Z,86.86
2022-08-19T06:11:18.013Z,87.29
2022-08-19T06:14:21.508Z,88.77
2022-08-19T06:17:31.335Z,86.84
2022-08-19T06:20:55.031Z,87.31
2022-08-19T06:23:57.289Z,86.71
2022-08-19T06:27:01.566Z,87.51
2022-08-19T06:30:04.338Z,86.76
2022-08-19T06:33:05.898Z,86.28
2022-08-19T06:36:07.867Z,86.28
2022-08-19T06:39:10.994Z,86.32
2022-08-19T06:42:17.621Z,88.14
2022-08-19T06:45:21.501Z,85.30
2022-08-19T06:48:26.866Z,83.95
2022-08-19T06:54:33.447Z,84.80
2022-08-19T06:57:39.426Z,84.08
2022-08-19T07:00:41.173Z,83.43
2022-08-19T07:03:42.814Z,83.25
2022-08-19T07:06:44.926Z,84.69
2022-08-19T07:09:58.412Z,81.28
2022-08-19T07:13:01.893Z,80.49
2022-08-19T07:16:09.645Z,80.72
2022-08-19T07:19:16.088Z,82.04
2022-08-19T07:22:18.904Z,80.81
2022-08-19T07:25:21.950Z,81.41
2022-08-19T07:28:34.246Z,82.08
2022-08-19T07:31:38.816Z,81.98
2022-08-19T07:34:40.397Z,81.70
2022-08-19T07:37:45.294Z,80.78
2022-08-19T07:40:47.114Z,79.80
2022-08-19T07:43:49.129Z,79.61
2022-08-19T07:46:53.376Z,78.45
2022-08-19T07:49:55.131Z,77.99
2022-08-19T07:52:57.671Z,76.59
2022-08-19T07:56:02.777Z,76.69
2022-08-19T07:59:04.378Z,76.52
2022-08-19T08:02:06.412Z,75.72
2022-08-19T08:05:26.601Z,74.32
2022-08-19T08:08:48.157Z,73.89
2022-08-19T08:12:02.101Z,73.97
2022-08-19T08:15:08.944Z,75.23
2022-08-19T08:18:14.631Z,74.80
2022-08-19T08:21:16.674Z,75.14
2022-08-19T08:24:18.494Z,75.86
2022-08-19T08:27:21.692Z,75.45
2022-08-19T08:30:31.267Z,74.45
2022-08-19T08:33:35.355Z,72.70
2022-08-19T08:36:41.737Z,71.92
2022-08-19T08:39:43.322Z,72.55
2022-08-19T08:42:46.563Z,71.96
2022-08-19T08:45:53.510Z,72.55
2022-08-19T08:48:57.599Z,73.04
2022-08-19T08:52:21.294Z,72.68
2022-08-19T08:55:36.634Z,72.84
2022-08-19T08:58:54.645Z,72.28
2022-08-19T09:01:56.823Z,72.43
2022-08-19T09:04:58.726Z,70.89
2022-08-19T09:08:09.862Z,70.23
2022-08-19T09:11:42.984Z,69.68
2022-08-19T09:14:51.970Z,68.78
2022-08-19T09:17:53.958Z,67.95
2022-08-19T09:20:57.222Z,67.78
2022-08-19T09:23:59.781Z,65.93
2022-08-19T09:27:07.960Z,65.82
2022-08-19T09:30:25.839Z,66.59
2022-08-19T09:33:28.006Z,66.78
2022-08-19T09:36:37.110Z,67.42
2022-08-19T09:39:39.685Z,68.45
2022-08-19T09:42:50.334Z,69.24
2022-08-19T09:45:54.211Z,69.42
2022-08-19T09:48:56.405Z,69.87
2022-08-19T09:51:58.668Z,68.69
2022-08-19T09:55:00.634Z,67.71
2022-08-19T09:58:02.567Z,67.81
2022-08-19T10:01:05.570Z,67.47
2022-08-19T10:04:19.719Z,68.00
2022-08-19T10:07:22.861Z,67.50
2022-08-19T10:10:30.694Z,67.39
2022-08-19T10:13:36.906Z,66.20
2022-08-19T10:16:40.094Z,65.67
2022-08-19T10:19:41.923Z,65.89
2022-08-19T10:22:56.903Z,63.99
2022-08-19T10:26:00.405Z,61.79
2022-08-19T10:29:02.313Z,60.43
2022-08-19T10:32:09.845Z,58.14
2022-08-19T10:35:11.913Z,59.56
2022-08-19T10:38:17.622Z,60.46
2022-08-19T10:41:20.224Z,59.99
2022-08-19T10:44:22.571Z,60.64
2022-08-19T10:47:25.852Z,60.82
2022-08-19T10:50:46.177Z,59.91
2022-08-19T10:53:47.878Z,60.84
2022-08-19T10:56:52.303Z,59.97
2022-08-19T10:59:54.030Z,59.26
2022-08-19T11:02:56.788Z,59.60
2022-08-19T11:06:01.697Z,59.86
2022-08-19T11:09:03.456Z,60.44
2022-08-19T11:12:05.257Z,60.52
2022-08-19T11:15:08.697Z,61.02
2022-08-19T11:18:13.209Z,61.84
2022-08-19T11:21:18.227Z,61.04
2022-08-19T11:24:21.362Z,61.28
2022-08-19T11:27:22.938Z,60.31
2022-08-19T11:30:24.570Z,58.94
2022-08-19T11:33:27.324Z,59.99
2022-08-19T11:36:29.182Z,58.86
2022-08-19T11:39:31.747Z,56.33
2022-08-19T11:42:52.045Z,58.87
2022-08-19T11:45:54.377Z,59.40
2022-08-19T11:48:56.589Z,58.65
2022-08-19T11:51:59.332Z,59.63
2022-08-19T11:55:01.058Z,59.01
2022-08-19T11:58:02.589Z,59.44
2022-08-19T12:01:08.483Z,56.97
2022-08-19T12:04:10.493Z,54.82
2022-08-19T12:07:12.095Z,54.82
2022-08-19T12:10:13.722Z,54.14
2022-08-19T12:13:20.067Z,53.54
2022-08-19T12:16:24.404Z,53.46
2022-08-19T12:19:26.434Z,53.32
2022-08-19T12:22:29.125Z,51.12
2022-08-19T12:25:31.875Z,52.03
2022-08-19T12:28:33.485Z,53.86
2022-08-19T12:31:35.372Z,53.73
2022-08-19T12:34:38.956Z,54.39
2022-08-19T12:37:45.666Z,52.37
2022-08-19T12:41:00.453Z,52.27
2022-08-19T12:44:02.183Z,53.16
2022-08-19T12:47:05.365Z,48.88
2022-08-19T12:50:09.704Z,50.20
2022-08-19T12:53:11.275Z,48.18
2022-08-19T12:56:15.340Z,48.85
2022-08-19T12:59:18.586Z,48.09
2022-08-19T13:02:21.041Z,48.55
2022-08-19T13:05:23.837Z,48.24
2022-08-19T13:08:25.672Z,49.26
2022-08-19T13:11:27.365Z,49.47
2022-08-19T13:14:31.590Z,49.76
2022-08-19T13:17:35.534Z,49.84
2022-08-19T13:20:38.067Z,49.84
2022-08-19T13:23:40.524Z,50.07
2022-08-19T13:26:42.269Z,52.64
2022-08-19T13:30:02.537Z,52.68
2022-08-19T13:33:16.122Z,52.72
2022-08-19T13:36:17.880Z,53.35
2022-08-19T13:39:20.182Z,52.49
2022-08-19T13:42:21.753Z,52.66
2022-08-19T13:45:25.197Z,52.60
2022-08-19T13:48:27.953Z,51.87
2022-08-19T13:51:29.679Z,53.34
2022-08-19T13:54:31.339Z,53.75
2022-08-19T13:57:33.188Z,51.30
2022-08-19T14:00:37.659Z,53.21
2022-08-19T14:03:39.354Z,53.51
2022-08-19T14:06:41.025Z,53.50
2022-08-19T14:09:42.723Z,54.08
2022-08-19T14:12:45.008Z,51.37
2022-08-19T14:15:47.004Z,51.43
2022-08-19T14:18:48.599Z,51.91
2022-08-19T14:21:50.242Z,51.97
2022-08-19T14:24:51.815Z,52.04
2022-08-19T14:27:53.617Z,49.81
2022-08-19T14:30:56.587Z,48.99
2022-08-19T14:33:58.357Z,51.26
2022-08-19T14:37:00.033Z,53.49
2022-08-19T14:40:04.725Z,54.89
2022-08-19T14:43:06.464Z,55.47
2022-08-19T14:46:08.987Z,53.94
2022-08-19T14:49:12.185Z,53.85
2022-08-19T14:52:13.941Z,54.63
2022-08-19T14:55:16.211Z,54.43
2022-08-19T14:58:29.072Z,52.74
2022-08-19T15:01:31.932Z,53.56
2022-08-19T15:04:33.911Z,53.30
2022-08-19T15:07:35.570Z,52.22
2022-08-19T15:10:39.111Z,51.38
2022-08-19T15:13:40.731Z,54.16
2022-08-19T15:16:42.739Z,54.82
2022-08-19T15:19:44.371Z,55.85
2022-08-19T15:22:46.191Z,57.19
2022-08-19T15:25:47.944Z,58.45
2022-08-19T15:28:49.654Z,57.79
2022-08-19T15:31:52.187Z,56.06
2022-08-19T15:34:56.063Z,56.61
2022-08-19T15:37:57.704Z,58.56
2022-08-19T15:41:19.249Z,57.81
2022-08-19T15:44:22.127Z,59.21
2022-08-19T15:47:23.775Z,58.60
2022-08-19T15:50:25.518Z,58.70
2022-08-19T15:53:27.106Z,59.87
2022-08-19T15:56:58.308Z,59.63
2022-08-19T16:00:18.888Z,59.28
2022-08-19T16:03:40.216Z,58.82
2022-08-19T16:06:44.598Z,57.57
2022-08-19T16:09:46.165Z,56.62
2022-08-19T16:12:47.732Z,57.21
2022-08-19T16:15:49.316Z,57.99
2022-08-19T16:18:53.614Z,58.87
2022-08-19T16:21:56.003Z,59.85
2022-08-19T16:24:57.909Z,60.44
2022-08-19T16:28:06.455Z,60.84
2022-08-19T16:31:10.449Z,60.29
2022-08-19T16:34:12.432Z,60.85
2022-08-19T16:37:14.365Z,59.05
2022-08-19T16:40:16.054Z,57.89
2022-08-19T16:43:17.722Z,57.23
2022-08-19T16:46:20.524Z,54.64
2022-08-19T16:49:52.340Z,52.91
2022-08-19T16:52:47.788Z,51.24
2022-08-19T16:55:57.407Z,50.17
2022-08-19T16:59:02.191Z,51.12
2022-08-19T17:02:03.930Z,50.51
2022-08-19T17:05:07.426Z,50.10
2022-08-19T17:08:09.059Z,50.01
2022-08-19T17:11:18.137Z,50.12
2022-08-19T17:14:21.935Z,51.06
2022-08-19T17:17:27.034Z,51.64
2022-08-19T17:20:31.083Z,57.13
2022-08-19T17:23:43.126Z,58.62
2022-08-19T17:26:45.759Z,60.09
2022-08-19T17:29:47.482Z,60.75
2022-08-19T17:32:49.417Z,59.98
2022-08-19T17:35:51.013Z,60.50
2022-08-19T17:38:52.880Z,58.20
2022-08-19T17:41:55.146Z,56.34
2022-08-19T17:44:59.273Z,55.75
2022-08-19T17:48:01.429Z,55.55
2022-08-19T17:51:12.986Z,55.54
2022-08-19T17:54:15.965Z,56.75
2022-08-19T17:57:17.654Z,56.95
2022-08-19T18:00:19.632Z,59.01
2022-08-19T18:03:21.262Z,63.11
2022-08-19T18:06:23.137Z,62.13
2022-08-19T18:09:25.970Z,59.88
2022-08-19T18:12:27.666Z,58.18
2022-08-19T18:15:29.283Z,60.56
2022-08-19T18:18:30.963Z,59.30
2022-08-19T18:21:35.916Z,59.59
2022-08-19T18:24:38.530Z,61.27
2022-08-19T18:27:40.308Z,62.41
2022-08-19T18:30:42.936Z,63.22
2022-08-19T18:33:45.093Z,63.18
2022-08-19T18:36:54.329Z,64.24
2022-08-19T18:40:14.677Z,64.44
2022-08-19T18:43:35.098Z,67.43
2022-08-19T18:46:57.360Z,69.16
2022-08-19T18:50:03.383Z,69.70
2022-08-19T18:53:07.133Z,69.76
2022-08-19T18:56:10.030Z,70.35
2022-08-19T18:59:14.136Z,70.83
2022-08-19T19:02:18.282Z,70.82
2022-08-19T19:05:21.695Z,71.27
2022-08-19T19:08:26.875Z,71.35
2022-08-19T19:11:33.979Z,71.73
2022-08-19T19:14:49.060Z,72.06
2022-08-19T19:17:51.292Z,72.44
2022-08-19T19:20:57.226Z,72.60
2022-08-19T19:23:58.950Z,72.68
2022-08-19T19:27:01.494Z,72.74
2022-08-19T19:30:03.369Z,73.32
2022-08-19T19:33:05.263Z,73.77
2022-08-19T19:36:07.006Z,73.69
2022-08-19T19:39:08.575Z,74.79
2022-08-19T19:42:12.466Z,74.93
2022-08-19T19:45:16.760Z,75.39
2022-08-19T19:48:18.470Z,76.15
2022-08-19T19:51:20.049Z,76.19
2022-08-19T19:54:23.579Z,76.85
2022-08-19T19:57:26.851Z,76.75
2022-08-19T20:00:28.905Z,77.45
2022-08-19T20:03:31.194Z,77.55
2022-08-19T20:06:33.542Z,77.72
2022-08-19T20:09:56.334Z,78.31
2022-08-19T20:12:56.986Z,78.01
2022-08-19T20:15:58.622Z,78.41
2022-08-19T20:19:00.826Z,78.44
2022-08-19T20:22:02.405Z,78.42
2022-08-19T20:25:06.330Z,78.86
2022-08-19T20:28:08.202Z,78.72
2022-08-19T20:31:10.469Z,78.92
2022-08-19T20:34:12.001Z,79.48
2022-08-19T20:37:13.538Z,79.39
2022-08-19T20:40:15.457Z,79.83
2022-08-19T20:43:17.038Z,79.87
2022-08-19T20:46:18.842Z,79.96
2022-08-19T20:49:20.373Z,80.44
2022-08-19T20:52:21.908Z,80.33
2022-08-19T20:55:23.464Z,80.98
2022-08-19T20:58:25.244Z,81.26
2022-08-19T21:01:26.885Z,82.03
2022-08-19T21:04:28.585Z,82.48
2022-08-19T21:07:39.400Z,82.41
2022-08-19T21:10:42.498Z,82.84
2022-08-19T21:13:44.153Z,82.84
2022-08-19T21:16:46.233Z,83.16
2022-08-19T21:19:47.769Z,82.32
2022-08-19T21:22:49.393Z,82.33
2022-08-19T21:25:54.454Z,82.22
2022-08-19T21:28:56.403Z,82.44
2022-08-19T21:31:57.953Z,82.73
2022-08-19T21:34:59.488Z,82.73
2022-08-19T21:38:01.960Z,82.79
2022-08-19T21:41:06.143Z,83.01
2022-08-19T21:44:07.892Z,83.28
2022-08-19T21:47:09.430Z,83.60
2022-08-19T21:50:12.555Z,84.22
2022-08-19T21:53:17.410Z,84.96
2022-08-19T21:56:19.370Z,84.90
2022-08-19T21:59:22.010Z,85.00
2022-08-19T22:02:23.649Z,85.10
2022-08-19T22:05:25.655Z,85.37
2022-08-19T22:08:27.336Z,85.95
2022-08-19T22:11:28.950Z,85.85
2022-08-19T22:14:31.345Z,86.67
2022-08-19T22:17:33.285Z,87.19
2022-08-19T22:20:34.870Z,87.62
2022-08-19T22:23:36.523Z,88.05
2022-08-19T22:26:38.178Z,87.94
2022-08-19T22:29:39.754Z,88.10
2022-08-19T22:32:48.681Z,87.59
2022-08-19T22:35:57.847Z,87.89
2022-08-19T22:38:59.947Z,87.81
2022-08-19T22:42:01.730Z,88.46
2022-08-19T22:45:03.598Z,89.39
2022-08-19T22:48:07.885Z,90.40
2022-08-19T22:51:28.306Z,89.62
2022-08-19T22:54:31.090Z,88.85
2022-08-19T22:57:32.741Z,88.58
2022-08-19T23:00:34.381Z,89.08
2022-08-19T23:03:36.020Z,88.72
2022-08-19T23:06:41.498Z,89.24
2022-08-19T23:09:43.837Z,88.47
2022-08-19T23:12:47.558Z,88.23
2022-08-19T23:15:49.297Z,88.44
2022-08-19T23:18:50.854Z,88.24
2022-08-19T23:21:58.194Z,89.55
2022-08-19T23:25:04.105Z,89.05
2022-08-19T23:28:24.459Z,90.04
2022-08-19T23:31:26.391Z,90.32
2022-08-19T23:34:27.970Z,90.24
2022-08-19T23:37:29.553Z,90.80
2022-08-19T23:40:31.209Z,88.84
2022-08-19T23:43:34.036Z,88.77
2022-08-19T23:46:54.454Z,89.35
2022-08-19T23:49:57.043Z,89.47
2022-08-19T23:52:59.234Z,89.28
2022-08-19T23:56:00.786Z,90.18
2022-08-19T23:59:02.418Z,90.26
